sensor_id;sensor_type;location;lat;lon;timestamp;pressure;altitude;pressure_sealevel;temperature
71960;BMP280;59832;51.146;14.024;2023-10-19T00:00:55;97028.91;;;7.86
71960;BMP280;59832;51.146;14.024;2023-10-19T00:03:23;97022.75;;;7.87
71960;BMP280;59832;51.146;14.024;2023-10-19T00:05:50;97013.72;;;7.86
71960;BMP280;59832;51.146;14.024;2023-10-19T00:08:16;97012.25;;;7.85
71960;BMP280;59832;51.146;14.024;2023-10-19T00:10:51;97006.38;;;7.77
71960;BMP280;59832;51.146;14.024;2023-10-19T00:13:38;96997.41;;;7.83
71960;BMP280;59832;51.146;14.024;2023-10-19T00:16:06;96993.78;;;7.84
71960;BMP280;59832;51.146;14.024;2023-10-19T00:18:49;96992.00;;;7.88
71960;BMP280;59832;51.146;14.024;2023-10-19T00:21:16;96978.25;;;7.89
71960;BMP280;59832;51.146;14.024;2023-10-19T00:23:47;96979.38;;;7.92
71960;BMP280;59832;51.146;14.024;2023-10-19T00:26:14;96971.00;;;7.88
71960;BMP280;59832;51.146;14.024;2023-10-19T00:28:47;96967.84;;;7.94
71960;BMP280;59832;51.146;14.024;2023-10-19T00:31:19;96966.38;;;7.97
71960;BMP280;59832;51.146;14.024;2023-10-19T00:33:49;96951.91;;;7.97
71960;BMP280;59832;51.146;14.024;2023-10-19T00:36:22;96946.09;;;7.93
71960;BMP280;59832;51.146;14.024;2023-10-19T00:38:49;96946.16;;;8.00
71960;BMP280;59832;51.146;14.024;2023-10-19T00:41:27;96936.28;;;7.85
71960;BMP280;59832;51.146;14.024;2023-10-19T00:43:58;96938.13;;;7.91
71960;BMP280;59832;51.146;14.024;2023-10-19T00:46:29;96946.78;;;7.90
71960;BMP280;59832;51.146;14.024;2023-10-19T00:49:07;96939.47;;;7.82
71960;BMP280;59832;51.146;14.024;2023-10-19T00:51:49;96936.66;;;7.90
71960;BMP280;59832;51.146;14.024;2023-10-19T00:54:23;96939.19;;;7.90
71960;BMP280;59832;51.146;14.024;2023-10-19T00:57:06;96934.13;;;7.90
71960;BMP280;59832;51.146;14.024;2023-10-19T00:59:37;96919.69;;;7.94
71960;BMP280;59832;51.146;14.024;2023-10-19T01:02:20;96913.88;;;7.90
71960;BMP280;59832;51.146;14.024;2023-10-19T01:04:54;96918.25;;;7.97
71960;BMP280;59832;51.146;14.024;2023-10-19T01:07:33;96905.91;;;7.92
71960;BMP280;59832;51.146;14.024;2023-10-19T01:10:11;96902.75;;;8.02
71960;BMP280;59832;51.146;14.024;2023-10-19T01:12:38;96899.09;;;7.99
71960;BMP280;59832;51.146;14.024;2023-10-19T01:15:11;96908.84;;;7.94
71960;BMP280;59832;51.146;14.024;2023-10-19T01:17:49;96906.94;;;7.87
71960;BMP280;59832;51.146;14.024;2023-10-19T01:20:23;96904.88;;;7.96
71960;BMP280;59832;51.146;14.024;2023-10-19T01:23:09;96904.13;;;7.92
71960;BMP280;59832;51.146;14.024;2023-10-19T01:25:43;96906.66;;;7.92
71960;BMP280;59832;51.146;14.024;2023-10-19T01:28:17;96894.66;;;7.89
71960;BMP280;59832;51.146;14.024;2023-10-19T01:30:44;96880.94;;;7.90
71960;BMP280;59832;51.146;14.024;2023-10-19T01:33:11;96882.38;;;7.91
71960;BMP280;59832;51.146;14.024;2023-10-19T01:35:42;96865.41;;;7.99
71960;BMP280;59832;51.146;14.024;2023-10-19T01:38:27;96877.00;;;7.96
71960;BMP280;59832;51.146;14.024;2023-10-19T01:41:02;96867.63;;;8.00
71960;BMP280;59832;51.146;14.024;2023-10-19T01:43:36;96860.03;;;8.04
71960;BMP280;59832;51.146;14.024;2023-10-19T01:46:08;96846.28;;;8.05
71960;BMP280;59832;51.146;14.024;2023-10-19T01:48:42;96854.63;;;8.09
71960;BMP280;59832;51.146;14.024;2023-10-19T01:51:11;96831.81;;;8.09
71960;BMP280;59832;51.146;14.024;2023-10-19T01:53:40;96842.69;;;8.06
71960;BMP280;59832;51.146;14.024;2023-10-19T01:56:13;96838.34;;;8.06
71960;BMP280;59832;51.146;14.024;2023-10-19T01:58:42;96841.97;;;8.09
71960;BMP280;59832;51.146;14.024;2023-10-19T02:01:09;96851.41;;;8.08
71960;BMP280;59832;51.146;14.024;2023-10-19T02:03:40;96834.38;;;8.12
71960;BMP280;59832;51.146;14.024;2023-10-19T02:06:11;96836.53;;;8.03
71960;BMP280;59832;51.146;14.024;2023-10-19T02:08:50;96838.00;;;8.11
71960;BMP280;59832;51.146;14.024;2023-10-19T02:11:21;96827.19;;;8.18
71960;BMP280;59832;51.146;14.024;2023-10-19T02:13:49;96827.88;;;8.15
71960;BMP280;59832;51.146;14.024;2023-10-19T02:16:18;96822.81;;;8.15
71960;BMP280;59832;51.146;14.024;2023-10-19T02:18:50;96819.53;;;8.11
71960;BMP280;59832;51.146;14.024;2023-10-19T02:21:17;96816.63;;;8.09
71960;BMP280;59832;51.146;14.024;2023-10-19T02:23:53;96810.09;;;8.04
71960;BMP280;59832;51.146;14.024;2023-10-19T02:26:20;96809.41;;;8.07
71960;BMP280;59832;51.146;14.024;2023-10-19T02:28:52;96802.88;;;8.06
71960;BMP280;59832;51.146;14.024;2023-10-19T02:31:19;96788.38;;;8.03
71960;BMP280;59832;51.146;14.024;2023-10-19T02:33:49;96777.88;;;8.05
71960;BMP280;59832;51.146;14.024;2023-10-19T02:36:28;96775.72;;;8.07
71960;BMP280;59832;51.146;14.024;2023-10-19T02:39:01;96769.94;;;8.10
71960;BMP280;59832;51.146;14.024;2023-10-19T02:41:35;96773.16;;;7.96
71960;BMP280;59832;51.146;14.024;2023-10-19T02:44:03;96760.13;;;7.98
71960;BMP280;59832;51.146;14.024;2023-10-19T02:46:31;96753.97;;;7.99
71960;BMP280;59832;51.146;14.024;2023-10-19T02:49:05;96735.16;;;7.96
71960;BMP280;59832;51.146;14.024;2023-10-19T02:51:41;96738.41;;;7.97
71960;BMP280;59832;51.146;14.024;2023-10-19T02:54:18;96727.94;;;8.02
71960;BMP280;59832;51.146;14.024;2023-10-19T02:56:51;96720.69;;;8.00
71960;BMP280;59832;51.146;14.024;2023-10-19T02:59:21;96725.41;;;8.02
71960;BMP280;59832;51.146;14.024;2023-10-19T03:01:52;96723.22;;;8.00
71960;BMP280;59832;51.146;14.024;2023-10-19T03:04:27;96712.72;;;7.95
71960;BMP280;59832;51.146;14.024;2023-10-19T03:06:57;96708.75;;;8.04
71960;BMP280;59832;51.146;14.024;2023-10-19T03:09:24;96708.41;;;8.06
71960;BMP280;59832;51.146;14.024;2023-10-19T03:11:54;96710.22;;;8.09
71960;BMP280;59832;51.146;14.024;2023-10-19T03:14:23;96711.69;;;8.13
71960;BMP280;59832;51.146;14.024;2023-10-19T03:16:52;96702.31;;;8.18
71960;BMP280;59832;51.146;14.024;2023-10-19T03:19:21;96703.72;;;8.11
71960;BMP280;59832;51.146;14.024;2023-10-19T03:21:47;96697.59;;;8.20
71960;BMP280;59832;51.146;14.024;2023-10-19T03:24:18;96690.34;;;8.22
71960;BMP280;59832;51.146;14.024;2023-10-19T03:27:09;96693.25;;;8.16
71960;BMP280;59832;51.146;14.024;2023-10-19T03:29:40;96686.41;;;8.28
71960;BMP280;59832;51.146;14.024;2023-10-19T03:32:06;96690.34;;;8.18
71960;BMP280;59832;51.146;14.024;2023-10-19T03:34:36;96685.28;;;8.18
71960;BMP280;59832;51.146;14.024;2023-10-19T03:37:05;96684.91;;;8.20
71960;BMP280;59832;51.146;14.024;2023-10-19T03:39:33;96686.03;;;8.19
71960;BMP280;59832;51.146;14.024;2023-10-19T03:42:01;96683.09;;;8.16
71960;BMP280;59832;51.146;14.024;2023-10-19T03:44:27;96683.47;;;8.22
71960;BMP280;59832;51.146;14.024;2023-10-19T03:47:05;96673.69;;;8.17
71960;BMP280;59832;51.146;14.024;2023-10-19T03:49:38;96683.06;;;8.09
71960;BMP280;59832;51.146;14.024;2023-10-19T03:52:06;96675.09;;;8.00
71960;BMP280;59832;51.146;14.024;2023-10-19T03:54:36;96701.50;;;7.99
71960;BMP280;59832;51.146;14.024;2023-10-19T03:57:08;96696.78;;;7.94
71960;BMP280;59832;51.146;14.024;2023-10-19T03:59:51;96704.31;;;7.87
71960;BMP280;59832;51.146;14.024;2023-10-19T04:02:24;96694.59;;;7.86
71960;BMP280;59832;51.146;14.024;2023-10-19T04:04:51;96692.34;;;7.73
71960;BMP280;59832;51.146;14.024;2023-10-19T04:07:19;96686.22;;;7.75
71960;BMP280;59832;51.146;14.024;2023-10-19T04:09:49;96684.00;;;7.66
71960;BMP280;59832;51.146;14.024;2023-10-19T04:12:38;96682.91;;;7.67
71960;BMP280;59832;51.146;14.024;2023-10-19T04:15:08;96677.78;;;7.53
71960;BMP280;59832;51.146;14.024;2023-10-19T04:17:46;96683.50;;;7.43
71960;BMP280;59832;51.146;14.024;2023-10-19T04:20:14;96673.75;;;7.41
71960;BMP280;59832;51.146;14.024;2023-10-19T04:22:50;96679.44;;;7.31
71960;BMP280;59832;51.146;14.024;2023-10-19T04:25:18;96679.06;;;7.25
71960;BMP280;59832;51.146;14.024;2023-10-19T04:27:48;96684.78;;;7.19
71960;BMP280;59832;51.146;14.024;2023-10-19T04:30:16;96670.97;;;7.09
71960;BMP280;59832;51.146;14.024;2023-10-19T04:32:43;96683.28;;;7.07
71960;BMP280;59832;51.146;14.024;2023-10-19T04:35:11;96658.31;;;7.02
71960;BMP280;59832;51.146;14.024;2023-10-19T04:37:40;96647.78;;;6.97
71960;BMP280;59832;51.146;14.024;2023-10-19T04:40:11;96637.97;;;6.88
71960;BMP280;59832;51.146;14.024;2023-10-19T04:42:38;96644.44;;;6.85
71960;BMP280;59832;51.146;14.024;2023-10-19T04:45:05;96640.44;;;6.84
71960;BMP280;59832;51.146;14.024;2023-10-19T04:47:32;96642.50;;;6.65
71960;BMP280;59832;51.146;14.024;2023-10-19T04:50:02;96635.63;;;6.69
71960;BMP280;59832;51.146;14.024;2023-10-19T04:52:30;96649.50;;;6.85
71960;BMP280;59832;51.146;14.024;2023-10-19T04:54:56;96655.63;;;6.81
71960;BMP280;59832;51.146;14.024;2023-10-19T04:57:24;96657.00;;;6.75
71960;BMP280;59832;51.146;14.024;2023-10-19T04:59:50;96662.75;;;6.72
71960;BMP280;59832;51.146;14.024;2023-10-19T05:02:17;96654.78;;;6.70
71960;BMP280;59832;51.146;14.024;2023-10-19T05:04:44;96677.50;;;6.66
71960;BMP280;59832;51.146;14.024;2023-10-19T05:07:11;96677.44;;;6.59
71960;BMP280;59832;51.146;14.024;2023-10-19T05:09:41;96657.28;;;6.63
71960;BMP280;59832;51.146;14.024;2023-10-19T05:12:07;96660.47;;;6.60
71960;BMP280;59832;51.146;14.024;2023-10-19T05:14:38;96656.84;;;6.57
71960;BMP280;59832;51.146;14.024;2023-10-19T05:17:05;96669.41;;;6.50
71960;BMP280;59832;51.146;14.024;2023-10-19T05:19:33;96666.84;;;6.43
71960;BMP280;59832;51.146;14.024;2023-10-19T05:22:05;96667.88;;;6.38
71960;BMP280;59832;51.146;14.024;2023-10-19T05:24:32;96665.72;;;6.40
71960;BMP280;59832;51.146;14.024;2023-10-19T05:26:59;96667.78;;;6.31
71960;BMP280;59832;51.146;14.024;2023-10-19T05:29:26;96671.50;;;6.41
71960;BMP280;59832;51.146;14.024;2023-10-19T05:31:53;96677.25;;;6.38
71960;BMP280;59832;51.146;14.024;2023-10-19T05:34:21;96651.22;;;6.34
71960;BMP280;59832;51.146;14.024;2023-10-19T05:36:48;96660.13;;;6.24
71960;BMP280;59832;51.146;14.024;2023-10-19T05:39:18;96653.72;;;6.30
71960;BMP280;59832;51.146;14.024;2023-10-19T05:41:45;96628.09;;;6.32
71960;BMP280;59832;51.146;14.024;2023-10-19T05:44:12;96639.63;;;6.29
71960;BMP280;59832;51.146;14.024;2023-10-19T05:46:38;96640.72;;;6.28
71960;BMP280;59832;51.146;14.024;2023-10-19T05:49:07;96652.53;;;6.21
71960;BMP280;59832;51.146;14.024;2023-10-19T05:51:34;96654.41;;;6.27
71960;BMP280;59832;51.146;14.024;2023-10-19T05:54:01;96643.91;;;6.25
71960;BMP280;59832;51.146;14.024;2023-10-19T05:56:31;96639.19;;;6.24
71960;BMP280;59832;51.146;14.024;2023-10-19T05:59:00;96641.06;;;6.27
71960;BMP280;59832;51.146;14.024;2023-10-19T06:01:28;96643.50;;;6.20
71960;BMP280;59832;51.146;14.024;2023-10-19T06:03:55;96638.88;;;6.25
71960;BMP280;59832;51.146;14.024;2023-10-19T06:06:22;96638.56;;;6.30
71960;BMP280;59832;51.146;14.024;2023-10-19T06:08:49;96641.78;;;6.31
71960;BMP280;59832;51.146;14.024;2023-10-19T06:11:21;96625.16;;;6.26
71960;BMP280;59832;51.146;14.024;2023-10-19T06:13:47;96620.44;;;6.21
71960;BMP280;59832;51.146;14.024;2023-10-19T06:16:14;96644.66;;;6.26
71960;BMP280;59832;51.146;14.024;2023-10-19T06:18:43;96638.13;;;6.21
71960;BMP280;59832;51.146;14.024;2023-10-19T06:21:10;96654.00;;;6.22
71960;BMP280;59832;51.146;14.024;2023-10-19T06:23:38;96641.78;;;6.27
71960;BMP280;59832;51.146;14.024;2023-10-19T06:26:12;96653.00;;;6.33
71960;BMP280;59832;51.146;14.024;2023-10-19T06:28:39;96658.13;;;6.37
71960;BMP280;59832;51.146;14.024;2023-10-19T06:31:07;96651.94;;;6.34
71960;BMP280;59832;51.146;14.024;2023-10-19T06:33:35;96658.84;;;6.37
71960;BMP280;59832;51.146;14.024;2023-10-19T06:36:03;96672.16;;;6.34
71960;BMP280;59832;51.146;14.024;2023-10-19T06:38:30;96662.44;;;6.36
71960;BMP280;59832;51.146;14.024;2023-10-19T06:40:59;96662.09;;;6.38
71960;BMP280;59832;51.146;14.024;2023-10-19T06:43:26;96676.13;;;6.35
71960;BMP280;59832;51.146;14.024;2023-10-19T06:45:57;96667.78;;;6.31
71960;BMP280;59832;51.146;14.024;2023-10-19T06:48:25;96663.94;;;6.41
71960;BMP280;59832;51.146;14.024;2023-10-19T06:50:51;96656.59;;;6.32
71960;BMP280;59832;51.146;14.024;2023-10-19T06:53:18;96668.63;;;6.39
71960;BMP280;59832;51.146;14.024;2023-10-19T06:55:44;96665.00;;;6.40
71960;BMP280;59832;51.146;14.024;2023-10-19T06:58:11;96661.06;;;6.42
71960;BMP280;59832;51.146;14.024;2023-10-19T07:00:38;96659.97;;;6.43
71960;BMP280;59832;51.146;14.024;2023-10-19T07:03:12;96655.25;;;6.38
71960;BMP280;59832;51.146;14.024;2023-10-19T07:05:39;96650.19;;;6.38
71960;BMP280;59832;51.146;14.024;2023-10-19T07:08:05;96657.78;;;6.38
71960;BMP280;59832;51.146;14.024;2023-10-19T07:10:33;96653.81;;;6.41
71960;BMP280;59832;51.146;14.024;2023-10-19T07:13:01;96655.97;;;6.39
71960;BMP280;59832;51.146;14.024;2023-10-19T07:15:28;96659.59;;;6.41
71960;BMP280;59832;51.146;14.024;2023-10-19T07:17:57;96670.47;;;6.46
71960;BMP280;59832;51.146;14.024;2023-10-19T07:20:24;96670.47;;;6.46
71960;BMP280;59832;51.146;14.024;2023-10-19T07:23:04;96672.25;;;6.45
71960;BMP280;59832;51.146;14.024;2023-10-19T07:25:48;96661.41;;;6.44
71960;BMP280;59832;51.146;14.024;2023-10-19T07:28:19;96660.31;;;6.38
71960;BMP280;59832;51.146;14.024;2023-10-19T07:30:46;96658.53;;;6.42
71960;BMP280;59832;51.146;14.024;2023-10-19T07:33:14;96648.44;;;6.46
71960;BMP280;59832;51.146;14.024;2023-10-19T07:35:45;96654.97;;;6.47
71960;BMP280;59832;51.146;14.024;2023-10-19T07:38:13;96655.31;;;6.49
71960;BMP280;59832;51.146;14.024;2023-10-19T07:40:40;96653.19;;;6.51
71960;BMP280;59832;51.146;14.024;2023-10-19T07:43:06;96654.31;;;6.54
71960;BMP280;59832;51.146;14.024;2023-10-19T07:45:34;96656.84;;;6.57
71960;BMP280;59832;51.146;14.024;2023-10-19T07:48:03;96664.69;;;6.49
71960;BMP280;59832;51.146;14.024;2023-10-19T07:50:34;96657.56;;;6.58
71960;BMP280;59832;51.146;14.024;2023-10-19T07:53:01;96648.53;;;6.53
71960;BMP280;59832;51.146;14.024;2023-10-19T07:55:29;96647.44;;;6.58
71960;BMP280;59832;51.146;14.024;2023-10-19T07:57:58;96655.03;;;6.54
71960;BMP280;59832;51.146;14.024;2023-10-19T08:00:30;96657.22;;;6.56
71960;BMP280;59832;51.146;14.024;2023-10-19T08:02:56;96654.78;;;6.70
71960;BMP280;59832;51.146;14.024;2023-10-19T08:05:23;96656.22;;;6.67
71960;BMP280;59832;51.146;14.024;2023-10-19T08:07:50;96648.66;;;6.67
71960;BMP280;59832;51.146;14.024;2023-10-19T08:10:18;96643.59;;;6.71
71960;BMP280;59832;51.146;14.024;2023-10-19T08:12:47;96644.72;;;6.73
71960;BMP280;59832;51.146;14.024;2023-10-19T08:15:14;96643.59;;;6.71
71960;BMP280;59832;51.146;14.024;2023-10-19T08:17:44;96645.41;;;6.70
71960;BMP280;59832;51.146;14.024;2023-10-19T08:20:12;96641.81;;;6.71
71960;BMP280;59832;51.146;14.024;2023-10-19T08:22:58;96633.13;;;6.65
71960;BMP280;59832;51.146;14.024;2023-10-19T08:25:25;96632.00;;;6.66
71960;BMP280;59832;51.146;14.024;2023-10-19T08:28:15;96637.50;;;6.75
71960;BMP280;59832;51.146;14.024;2023-10-19T08:30:42;96635.03;;;6.82
71960;BMP280;59832;51.146;14.024;2023-10-19T08:33:11;96628.56;;;6.81
71960;BMP280;59832;51.146;14.024;2023-10-19T08:35:40;96613.72;;;6.80
71960;BMP280;59832;51.146;14.024;2023-10-19T08:38:07;96611.63;;;6.89
71960;BMP280;59832;51.146;14.024;2023-10-19T08:40:38;96605.78;;;6.85
71960;BMP280;59832;51.146;14.024;2023-10-19T08:43:06;96604.28;;;6.73
71960;BMP280;59832;51.146;14.024;2023-10-19T08:45:34;96601.88;;;6.91
71960;BMP280;59832;51.146;14.024;2023-10-19T08:48:01;96600.03;;;6.88
71960;BMP280;59832;51.146;14.024;2023-10-19T08:50:30;96599.38;;;6.91
71960;BMP280;59832;51.146;14.024;2023-10-19T08:52:59;96589.59;;;6.93
71960;BMP280;59832;51.146;14.024;2023-10-19T08:55:26;96591.41;;;6.96
71960;BMP280;59832;51.146;14.024;2023-10-19T08:58:13;96586.00;;;6.91
71960;BMP280;59832;51.146;14.024;2023-10-19T09:00:44;96591.81;;;7.02
71960;BMP280;59832;51.146;14.024;2023-10-19T09:03:14;96578.75;;;6.93
71960;BMP280;59832;51.146;14.024;2023-10-19T09:05:44;96575.81;;;6.87
71960;BMP280;59832;51.146;14.024;2023-10-19T09:08:14;96582.03;;;6.97
71960;BMP280;59832;51.146;14.024;2023-10-19T09:10:42;96581.28;;;6.93
71960;BMP280;59832;51.146;14.024;2023-10-19T09:13:12;96578.81;;;7.03
71960;BMP280;59832;51.146;14.024;2023-10-19T09:15:40;96575.28;;;7.15
71960;BMP280;59832;51.146;14.024;2023-10-19T09:18:19;96577.09;;;7.21
71960;BMP280;59832;51.146;14.024;2023-10-19T09:20:47;96579.28;;;7.23
71960;BMP280;59832;51.146;14.024;2023-10-19T09:23:30;96574.97;;;7.23
71960;BMP280;59832;51.146;14.024;2023-10-19T09:25:58;96564.16;;;7.30
71960;BMP280;59832;51.146;14.024;2023-10-19T09:28:29;96565.97;;;7.33
71960;BMP280;59832;51.146;14.024;2023-10-19T09:30:56;96559.84;;;7.34
71960;BMP280;59832;51.146;14.024;2023-10-19T09:33:23;96571.41;;;7.39
71960;BMP280;59832;51.146;14.024;2023-10-19T09:35:51;96569.97;;;7.38
71960;BMP280;59832;51.146;14.024;2023-10-19T09:38:23;96563.13;;;7.42
71960;BMP280;59832;51.146;14.024;2023-10-19T09:40:52;96556.63;;;7.55
71960;BMP280;59832;51.146;14.024;2023-10-19T09:43:43;96554.03;;;7.34
71960;BMP280;59832;51.146;14.024;2023-10-19T09:46:12;96561.69;;;7.48
71960;BMP280;59832;51.146;14.024;2023-10-19T09:48:45;96556.97;;;7.43
71960;BMP280;59832;51.146;14.024;2023-10-19T09:51:13;96545.44;;;7.49
71960;BMP280;59832;51.146;14.024;2023-10-19T09:53:45;96545.81;;;7.51
71960;BMP280;59832;51.146;14.024;2023-10-19T09:56:19;96540.75;;;7.61
71960;BMP280;59832;51.146;14.024;2023-10-19T09:58:50;96532.50;;;7.75
71960;BMP280;59832;51.146;14.024;2023-10-19T10:01:17;96531.00;;;7.70
71960;BMP280;59832;51.146;14.024;2023-10-19T10:03:49;96537.56;;;7.75
71960;BMP280;59832;51.146;14.024;2023-10-19T10:07:11;96525.22;;;7.70
71960;BMP280;59832;51.146;14.024;2023-10-19T10:09:19;96526.66;;;7.71
71960;BMP280;59832;51.146;14.024;2023-10-19T10:11:51;96528.16;;;7.83
71960;BMP280;59832;51.146;14.024;2023-10-19T10:14:24;96520.91;;;7.88
71960;BMP280;59832;51.146;14.024;2023-10-19T10:17:01;96513.34;;;7.85
71960;BMP280;59832;51.146;14.024;2023-10-19T10:19:28;96519.84;;;8.00
71960;BMP280;59832;51.146;14.024;2023-10-19T10:22:11;96515.84;;;7.99
71960;BMP280;59832;51.146;14.024;2023-10-19T10:24:41;96520.91;;;7.88
71960;BMP280;59832;51.146;14.024;2023-10-19T10:27:09;96518.75;;;7.90
71960;BMP280;59832;51.146;14.024;2023-10-19T10:29:54;96511.16;;;7.90
71960;BMP280;59832;51.146;14.024;2023-10-19T10:32:43;96493.44;;;7.94
71960;BMP280;59832;51.146;14.024;2023-10-19T10:35:18;96498.84;;;7.89
71960;BMP280;59832;51.146;14.024;2023-10-19T10:37:57;96487.25;;;7.88
71960;BMP280;59832;51.146;14.024;2023-10-19T10:40:24;96488.72;;;7.92
71960;BMP280;59832;51.146;14.024;2023-10-19T10:43:05;96486.56;;;8.01
71960;BMP280;59832;51.146;14.024;2023-10-19T10:45:32;96477.88;;;8.06
71960;BMP280;59832;51.146;14.024;2023-10-19T10:47:58;96465.56;;;8.04
71960;BMP280;59832;51.146;14.024;2023-10-19T10:50:28;96474.59;;;7.98
71960;BMP280;59832;51.146;14.024;2023-10-19T10:52:54;96483.31;;;7.97
71960;BMP280;59832;51.146;14.024;2023-10-19T10:55:24;96477.50;;;7.97
71960;BMP280;59832;51.146;14.024;2023-10-19T10:57:54;96490.53;;;8.09
71960;BMP280;59832;51.146;14.024;2023-10-19T11:00:20;96478.59;;;8.03
71960;BMP280;59832;51.146;14.024;2023-10-19T11:03:00;96473.53;;;7.99
71960;BMP280;59832;51.146;14.024;2023-10-19T11:05:27;96467.38;;;8.11
71960;BMP280;59832;51.146;14.024;2023-10-19T11:08:05;96471.34;;;8.15
71960;BMP280;59832;51.146;14.024;2023-10-19T11:10:33;96467.38;;;8.07
71960;BMP280;59832;51.146;14.024;2023-10-19T11:13:04;96465.19;;;8.13
71960;BMP280;59832;51.146;14.024;2023-10-19T11:15:31;96467.75;;;8.16
71960;BMP280;59832;51.146;14.024;2023-10-19T11:17:58;96463.75;;;8.15
71960;BMP280;59832;51.146;14.024;2023-10-19T11:20:26;96463.41;;;8.06
71960;BMP280;59832;51.146;14.024;2023-10-19T11:22:56;96471.34;;;8.19
71960;BMP280;59832;51.146;14.024;2023-10-19T11:25:25;96461.94;;;8.23
71960;BMP280;59832;51.146;14.024;2023-10-19T11:27:58;96467.34;;;8.22
71960;BMP280;59832;51.146;14.024;2023-10-19T11:30:27;96469.91;;;8.14
71960;BMP280;59832;51.146;14.024;2023-10-19T11:32:55;96461.94;;;8.05
71960;BMP280;59832;51.146;14.024;2023-10-19T11:35:29;96468.47;;;8.10
71960;BMP280;59832;51.146;14.024;2023-10-19T11:37:59;96468.44;;;8.13
71960;BMP280;59832;51.146;14.024;2023-10-19T11:40:26;96460.50;;;8.15
71960;BMP280;59832;51.146;14.024;2023-10-19T11:42:55;96459.03;;;8.14
71960;BMP280;59832;51.146;14.024;2023-10-19T11:45:25;96451.78;;;8.12
71960;BMP280;59832;51.146;14.024;2023-10-19T11:47:52;96448.94;;;8.18
71960;BMP280;59832;51.146;14.024;2023-10-19T11:50:20;96457.22;;;8.14
71960;BMP280;59832;51.146;14.024;2023-10-19T11:52:46;96439.13;;;8.12
71960;BMP280;59832;51.146;14.024;2023-10-19T11:55:17;96444.19;;;8.20
71960;BMP280;59832;51.146;14.024;2023-10-19T11:57:43;96448.53;;;8.19
71960;BMP280;59832;51.146;14.024;2023-10-19T12:00:11;96446.00;;;8.30
71960;BMP280;59832;51.146;14.024;2023-10-19T12:02:40;96448.53;;;8.30
71960;BMP280;59832;51.146;14.024;2023-10-19T12:05:10;96435.47;;;8.45
71960;BMP280;59832;51.146;14.024;2023-10-19T12:07:37;96440.53;;;8.42
71960;BMP280;59832;51.146;14.024;2023-10-19T12:10:06;96439.44;;;8.43
71960;BMP280;59832;51.146;14.024;2023-10-19T12:12:35;96441.25;;;8.42
71960;BMP280;59832;51.146;14.024;2023-10-19T12:15:21;96434.72;;;8.59
71960;BMP280;59832;51.146;14.024;2023-10-19T12:17:49;96439.41;;;8.57
71960;BMP280;59832;51.146;14.024;2023-10-19T12:20:22;96440.16;;;8.57
71960;BMP280;59832;51.146;14.024;2023-10-19T12:22:49;96440.50;;;8.56
71960;BMP280;59832;51.146;14.024;2023-10-19T12:25:22;96436.88;;;8.57
71960;BMP280;59832;51.146;14.024;2023-10-19T12:28:18;96448.84;;;8.56
71960;BMP280;59832;51.146;14.024;2023-10-19T12:30:45;96434.00;;;8.55
71960;BMP280;59832;51.146;14.024;2023-10-19T12:33:11;96436.53;;;8.55
71960;BMP280;59832;51.146;14.024;2023-10-19T12:35:40;96438.66;;;8.71
71960;BMP280;59832;51.146;14.024;2023-10-19T12:38:20;96437.59;;;8.61
71960;BMP280;59832;51.146;14.024;2023-10-19T12:40:48;96430.72;;;8.61
71960;BMP280;59832;51.146;14.024;2023-10-19T12:43:15;96427.84;;;8.59
71960;BMP280;59832;51.146;14.024;2023-10-19T12:45:42;96437.22;;;8.63
71960;BMP280;59832;51.146;14.024;2023-10-19T12:48:10;96433.63;;;8.64
71960;BMP280;59832;51.146;14.024;2023-10-19T12:50:38;96437.59;;;8.61
71960;BMP280;59832;51.146;14.024;2023-10-19T12:53:05;96428.19;;;8.58
71960;BMP280;59832;51.146;14.024;2023-10-19T12:55:32;96427.13;;;8.59
71960;BMP280;59832;51.146;14.024;2023-10-19T12:57:59;96429.56;;;8.77
71960;BMP280;59832;51.146;14.024;2023-10-19T13:00:33;96423.81;;;8.69
71960;BMP280;59832;51.146;14.024;2023-10-19T13:03:07;96415.84;;;8.67
71960;BMP280;59832;51.146;14.024;2023-10-19T13:05:35;96419.81;;;8.72
71960;BMP280;59832;51.146;14.024;2023-10-19T13:08:07;96417.97;;;8.76
71960;BMP280;59832;51.146;14.024;2023-10-19T13:10:35;96416.53;;;8.75
71960;BMP280;59832;51.146;14.024;2023-10-19T13:13:08;96416.13;;;8.87
71960;BMP280;59832;51.146;14.024;2023-10-19T13:15:39;96413.56;;;8.90
71960;BMP280;59832;51.146;14.024;2023-10-19T13:18:07;96401.56;;;9.05
71960;BMP280;59832;51.146;14.024;2023-10-19T13:20:39;96393.91;;;9.09
71960;BMP280;59832;51.146;14.024;2023-10-19T13:23:10;96387.06;;;9.05
71960;BMP280;59832;51.146;14.024;2023-10-19T13:25:43;96389.44;;;9.27
71960;BMP280;59832;51.146;14.024;2023-10-19T13:28:17;96385.47;;;9.26
71960;BMP280;59832;51.146;14.024;2023-10-19T13:30:51;96376.78;;;9.23
71960;BMP280;59832;51.146;14.024;2023-10-19T13:33:20;96385.13;;;9.24
71960;BMP280;59832;51.146;14.024;2023-10-19T13:35:48;96386.84;;;9.34
71960;BMP280;59832;51.146;14.024;2023-10-19T13:38:16;96381.03;;;9.40
71960;BMP280;59832;51.146;14.024;2023-10-19T13:40:43;96377.66;;;9.54
71960;BMP280;59832;51.146;14.024;2023-10-19T13:43:13;96380.19;;;9.50
71960;BMP280;59832;51.146;14.024;2023-10-19T13:45:41;96385.00;;;9.38
71960;BMP280;59832;51.146;14.024;2023-10-19T13:48:11;96373.41;;;9.40
71960;BMP280;59832;51.146;14.024;2023-10-19T13:50:56;96378.47;;;9.37
71960;BMP280;59832;51.146;14.024;2023-10-19T13:53:39;96370.91;;;9.33
71960;BMP280;59832;51.146;14.024;2023-10-19T13:56:10;96371.53;;;9.48
71960;BMP280;59832;51.146;14.024;2023-10-19T13:58:37;96360.00;;;9.40
71960;BMP280;59832;51.146;14.024;2023-10-19T14:01:08;96353.28;;;9.60
71960;BMP280;59832;51.146;14.024;2023-10-19T14:03:37;96358.88;;;9.44
71960;BMP280;59832;51.146;14.024;2023-10-19T14:06:11;96355.81;;;9.60
71960;BMP280;59832;51.146;14.024;2023-10-19T14:08:38;96353.22;;;9.67
71960;BMP280;59832;51.146;14.024;2023-10-19T14:11:05;96356.44;;;9.75
71960;BMP280;59832;51.146;14.024;2023-10-19T14:13:33;96356.78;;;9.73
71960;BMP280;59832;51.146;14.024;2023-10-19T14:16:05;96355.34;;;9.76
71960;BMP280;59832;51.146;14.024;2023-10-19T14:18:32;96355.78;;;9.67
71960;BMP280;59832;51.146;14.024;2023-10-19T14:20:58;96357.16;;;9.75
71960;BMP280;59832;51.146;14.024;2023-10-19T14:23:25;96352.50;;;9.67
71960;BMP280;59832;51.146;14.024;2023-10-19T14:25:51;96357.59;;;9.67
71960;BMP280;59832;51.146;14.024;2023-10-19T14:28:18;96357.91;;;9.69